sensor_id;sensor_type;location;lat;lon;timestamp;P1;P2;P0
60374;PMS5003;70244;48.792;9.172;2023-06-24T04:16:00;8;8;
60374;PMS5003;70244;48.792;9.172;2023-06-24T04:18:31;9;9;
60374;PMS5003;70244;48.792;9.172;2023-06-24T04:21:14;9;9;
60374;PMS5003;70244;48.792;9.172;2023-06-24T04:23:44;11;11;
60374;PMS5003;70244;48.792;9.172;2023-06-24T04:26:15;8;8;
60374;PMS5003;70244;48.792;9.172;2023-06-24T04:28:46;11;9;
60374;PMS5003;70244;48.792;9.172;2023-06-24T04:31:16;12;9;
60374;PMS5003;70244;48.792;9.172;2023-06-24T04:33:47;9;9;
60374;PMS5003;70244;48.792;9.172;2023-06-24T04:36:18;11;11;
60374;PMS5003;70244;48.792;9.172;2023-06-24T04:38:48;10;10;
60374;PMS5003;70244;48.792;9.172;2023-06-24T04:41:19;9;9;
60374;PMS5003;70244;48.792;9.172;2023-06-24T04:43:50;9;9;
60374;PMS5003;70244;48.792;9.172;2023-06-24T04:46:20;11;9;
60374;PMS5003;70244;48.792;9.172;2023-06-24T04:48:51;12;11;
60374;PMS5003;70244;48.792;9.172;2023-06-24T04:51:21;9;9;
60374;PMS5003;70244;48.792;9.172;2023-06-24T04:53:52;9;9;
60374;PMS5003;70244;48.792;9.172;2023-06-24T04:56:22;12;12;
60374;PMS5003;70244;48.792;9.172;2023-06-24T04:58:53;11;11;
60374;PMS5003;70244;48.792;9.172;2023-06-24T05:01:24;11;8;
60374;PMS5003;70244;48.792;9.172;2023-06-24T05:03:54;10;10;
60374;PMS5003;70244;48.792;9.172;2023-06-24T05:06:25;11;11;
60374;PMS5003;70244;48.792;9.172;2023-06-24T05:08:56;9;8;
60374;PMS5003;70244;48.792;9.172;2023-06-24T05:11:26;14;11;
60374;PMS5003;70244;48.792;9.172;2023-06-24T05:13:57;11;10;
60374;PMS5003;70244;48.792;9.172;2023-06-24T05:16:27;11;10;
60374;PMS5003;70244;48.792;9.172;2023-06-24T05:18:58;6;6;
60374;PMS5003;70244;48.792;9.172;2023-06-24T05:21:29;9;8;
60374;PMS5003;70244;48.792;9.172;2023-06-24T05:23:59;10;10;
60374;PMS5003;70244;48.792;9.172;2023-06-24T05:26:30;12;12;
60374;PMS5003;70244;48.792;9.172;2023-06-24T05:29:00;10;10;
60374;PMS5003;70244;48.792;9.172;2023-06-24T05:31:31;11;11;
60374;PMS5003;70244;48.792;9.172;2023-06-24T05:34:02;11;11;
60374;PMS5003;70244;48.792;9.172;2023-06-24T05:36:32;11;11;
60374;PMS5003;70244;48.792;9.172;2023-06-24T05:39:03;12;10;
60374;PMS5003;70244;48.792;9.172;2023-06-24T05:41:34;11;11;
60374;PMS5003;70244;48.792;9.172;2023-06-24T05:44:06;11;10;
60374;PMS5003;70244;48.792;9.172;2023-06-24T05:46:35;11;11;
60374;PMS5003;70244;48.792;9.172;2023-06-24T05:49:05;14;10;
60374;PMS5003;70244;48.792;9.172;2023-06-24T05:51:36;12;12;
60374;PMS5003;70244;48.792;9.172;2023-06-24T05:54:06;9;9;
60374;PMS5003;70244;48.792;9.172;2023-06-24T05:56:37;11;11;
60374;PMS5003;70244;48.792;9.172;2023-06-24T05:59:08;8;8;
60374;PMS5003;70244;48.792;9.172;2023-06-24T06:01:38;12;10;
60374;PMS5003;70244;48.792;9.172;2023-06-24T06:04:09;11;11;
60374;PMS5003;70244;48.792;9.172;2023-06-24T06:06:39;10;10;
60374;PMS5003;70244;48.792;9.172;2023-06-24T06:09:09;12;12;
60374;PMS5003;70244;48.792;9.172;2023-06-24T06:11:39;13;11;
60374;PMS5003;70244;48.792;9.172;2023-06-24T06:14:10;12;11;
60374;PMS5003;70244;48.792;9.172;2023-06-24T06:16:41;12;12;
60374;PMS5003;70244;48.792;9.172;2023-06-24T06:19:11;11;11;
60374;PMS5003;70244;48.792;9.172;2023-06-24T06:21:42;11;9;
60374;PMS5003;70244;48.792;9.172;2023-06-24T06:24:13;14;12;
60374;PMS5003;70244;48.792;9.172;2023-06-24T06:26:44;9;9;
60374;PMS5003;70244;48.792;9.172;2023-06-24T06:29:14;11;10;
60374;PMS5003;70244;48.792;9.172;2023-06-24T06:31:45;10;10;
60374;PMS5003;70244;48.792;9.172;2023-06-24T06:34:15;12;12;
60374;PMS5003;70244;48.792;9.172;2023-06-24T06:36:45;9;9;
60374;PMS5003;70244;48.792;9.172;2023-06-24T06:39:16;11;9;
60374;PMS5003;70244;48.792;9.172;2023-06-24T06:41:47;11;11;
60374;PMS5003;70244;48.792;9.172;2023-06-24T06:44:17;10;10;
60374;PMS5003;70244;48.792;9.172;2023-06-24T06:46:48;10;10;
60374;PMS5003;70244;48.792;9.172;2023-06-24T06:49:19;8;8;
60374;PMS5003;70244;48.792;9.172;2023-06-24T06:51:49;10;10;
60374;PMS5003;70244;48.792;9.172;2023-06-24T06:54:19;10;10;
60374;PMS5003;70244;48.792;9.172;2023-06-24T06:56:50;9;9;
60374;PMS5003;70244;48.792;9.172;2023-06-24T06:59:20;8;8;
60374;PMS5003;70244;48.792;9.172;2023-06-24T07:01:51;10;8;
60374;PMS5003;70244;48.792;9.172;2023-06-24T07:04:22;8;8;
60374;PMS5003;70244;48.792;9.172;2023-06-24T07:06:52;8;8;
60374;PMS5003;70244;48.792;9.172;2023-06-24T07:09:22;8;8;
60374;PMS5003;70244;48.792;9.172;2023-06-24T07:11:53;6;6;
60374;PMS5003;70244;48.792;9.172;2023-06-24T07:14:24;10;9;
60374;PMS5003;70244;48.792;9.172;2023-06-24T07:16:54;8;8;
60374;PMS5003;70244;48.792;9.172;2023-06-24T07:19:24;8;8;
60374;PMS5003;70244;48.792;9.172;2023-06-24T07:21:55;7;7;
60374;PMS5003;70244;48.792;9.172;2023-06-24T07:24:26;8;8;
60374;PMS5003;70244;48.792;9.172;2023-06-24T07:26:56;7;7;
60374;PMS5003;70244;48.792;9.172;2023-06-24T07:29:27;6;6;
60374;PMS5003;70244;48.792;9.172;2023-06-24T07:31:58;10;8;
60374;PMS5003;70244;48.792;9.172;2023-06-24T07:34:28;9;8;
60374;PMS5003;70244;48.792;9.172;2023-06-24T07:36:59;8;8;
60374;PMS5003;70244;48.792;9.172;2023-06-24T07:42:00;9;8;
60374;PMS5003;70244;48.792;9.172;2023-06-24T07:44:31;9;9;
60374;PMS5003;70244;48.792;9.172;2023-06-24T07:47:02;8;8;
60374;PMS5003;70244;48.792;9.172;2023-06-24T07:49:32;7;7;
60374;PMS5003;70244;48.792;9.172;2023-06-24T07:52:03;7;7;
60374;PMS5003;70244;48.792;9.172;2023-06-24T07:54:33;7;7;
60374;PMS5003;70244;48.792;9.172;2023-06-24T07:57:04;10;8;
60374;PMS5003;70244;48.792;9.172;2023-06-24T07:59:34;8;8;
60374;PMS5003;70244;48.792;9.172;2023-06-24T08:02:04;8;8;
60374;PMS5003;70244;48.792;9.172;2023-06-24T08:04:35;6;6;
60374;PMS5003;70244;48.792;9.172;2023-06-24T08:07:06;10;8;
60374;PMS5003;70244;48.792;9.172;2023-06-24T08:09:36;5;5;
60374;PMS5003;70244;48.792;9.172;2023-06-24T08:12:07;8;8;
60374;PMS5003;70244;48.792;9.172;2023-06-24T08:14:37;9;9;
60374;PMS5003;70244;48.792;9.172;2023-06-24T08:17:08;9;9;
60374;PMS5003;70244;48.792;9.172;2023-06-24T08:19:38;7;7;
60374;PMS5003;70244;48.792;9.172;2023-06-24T08:22:09;8;8;
60374;PMS5003;70244;48.792;9.172;2023-06-24T08:24:39;9;9;
60374;PMS5003;70244;48.792;9.172;2023-06-24T08:27:14;6;6;
60374;PMS5003;70244;48.792;9.172;2023-06-24T08:29:40;7;7;
60374;PMS5003;70244;48.792;9.172;2023-06-24T08:34:50;8;8;
60374;PMS5003;70244;48.792;9.172;2023-06-24T08:37:12;10;10;
60374;PMS5003;70244;48.792;9.172;2023-06-24T08:42:14;9;9;
60374;PMS5003;70244;48.792;9.172;2023-06-24T08:44:44;8;8;
60374;PMS5003;70244;48.792;9.172;2023-06-24T08:54:49;6;6;
60374;PMS5003;70244;48.792;9.172;2023-06-24T08:59:52;9;8;
60374;PMS5003;70244;48.792;9.172;2023-06-24T09:14:51;8;8;
60374;PMS5003;70244;48.792;9.172;2023-06-24T09:19:52;7;7;
60374;PMS5003;70244;48.792;9.172;2023-06-24T09:24:53;8;8;
60374;PMS5003;70244;48.792;9.172;2023-06-24T09:27:23;8;8;
60374;PMS5003;70244;48.792;9.172;2023-06-24T09:29:56;7;7;
60374;PMS5003;70244;48.792;9.172;2023-06-24T09:34:55;7;7;
60374;PMS5003;70244;48.792;9.172;2023-06-24T09:37:26;8;8;
60374;PMS5003;70244;48.792;9.172;2023-06-24T09:39:57;8;8;
60374;PMS5003;70244;48.792;9.172;2023-06-24T09:42:30;10;8;
60374;PMS5003;70244;48.792;9.172;2023-06-24T09:50:01;6;6;
60374;PMS5003;70244;48.792;9.172;2023-06-24T09:52:29;8;7;
60374;PMS5003;70244;48.792;9.172;2023-06-24T09:55:02;8;8;
60374;PMS5003;70244;48.792;9.172;2023-06-24T09:57:30;8;6;
60374;PMS5003;70244;48.792;9.172;2023-06-24T10:00:02;8;8;
60374;PMS5003;70244;48.792;9.172;2023-06-24T10:02:36;8;7;
60374;PMS5003;70244;48.792;9.172;2023-06-24T10:05:03;10;8;
60374;PMS5003;70244;48.792;9.172;2023-06-24T10:10:03;7;7;
60374;PMS5003;70244;48.792;9.172;2023-06-24T10:12:33;8;8;
60374;PMS5003;70244;48.792;9.172;2023-06-24T10:15:04;7;7;
60374;PMS5003;70244;48.792;9.172;2023-06-24T10:22:35;8;7;
60374;PMS5003;70244;48.792;9.172;2023-06-24T10:25:06;8;6;
60374;PMS5003;70244;48.792;9.172;2023-06-24T10:27:39;12;10;
60374;PMS5003;70244;48.792;9.172;2023-06-24T10:30:07;14;12;
60374;PMS5003;70244;48.792;9.172;2023-06-24T10:32:41;10;10;
60374;PMS5003;70244;48.792;9.172;2023-06-24T10:37:38;13;11;
60374;PMS5003;70244;48.792;9.172;2023-06-24T10:42:39;12;12;
60374;PMS5003;70244;48.792;9.172;2023-06-24T10:45:15;15;12;
60374;PMS5003;70244;48.792;9.172;2023-06-24T10:47:41;13;11;
60374;PMS5003;70244;48.792;9.172;2023-06-24T10:50:13;16;15;
60374;PMS5003;70244;48.792;9.172;2023-06-24T10:55:13;17;14;
60374;PMS5003;70244;48.792;9.172;2023-06-24T10:57:47;14;14;
60374;PMS5003;70244;48.792;9.172;2023-06-24T11:00:16;17;15;
60374;PMS5003;70244;48.792;9.172;2023-06-24T11:05:16;13;13;
60374;PMS5003;70244;48.792;9.172;2023-06-24T11:10:20;14;13;
60374;PMS5003;70244;48.792;9.172;2023-06-24T11:12:46;15;13;
60374;PMS5003;70244;48.792;9.172;2023-06-24T11:15:18;14;13;
60374;PMS5003;70244;48.792;9.172;2023-06-24T11:17:50;14;11;
60374;PMS5003;70244;48.792;9.172;2023-06-24T11:20:17;11;11;
60374;PMS5003;70244;48.792;9.172;2023-06-24T11:22:47;10;8;
60374;PMS5003;70244;48.792;9.172;2023-06-24T11:25:19;10;10;
60374;PMS5003;70244;48.792;9.172;2023-06-24T11:27:51;14;12;
60374;PMS5003;70244;48.792;9.172;2023-06-24T11:32:49;11;10;
60374;PMS5003;70244;48.792;9.172;2023-06-24T11:45:22;11;11;
60374;PMS5003;70244;48.792;9.172;2023-06-24T11:50:26;10;10;
60374;PMS5003;70244;48.792;9.172;2023-06-24T11:52:53;15;14;
60374;PMS5003;70244;48.792;9.172;2023-06-24T11:55:24;10;10;
60374;PMS5003;70244;48.792;9.172;2023-06-24T11:57:55;11;10;
60374;PMS5003;70244;48.792;9.172;2023-06-24T12:02:56;14;12;
60374;PMS5003;70244;48.792;9.172;2023-06-24T12:05:27;10;10;
60374;PMS5003;70244;48.792;9.172;2023-06-24T12:10:27;11;9;
60374;PMS5003;70244;48.792;9.172;2023-06-24T12:12:59;9;9;
60374;PMS5003;70244;48.792;9.172;2023-06-24T12:15:31;14;14;
60374;PMS5003;70244;48.792;9.172;2023-06-24T12:18:05;13;11;
60374;PMS5003;70244;48.792;9.172;2023-06-24T12:20:34;11;9;
60374;PMS5003;70244;48.792;9.172;2023-06-24T12:23:00;12;10;
60374;PMS5003;70244;48.792;9.172;2023-06-24T12:25:31;9;9;
60374;PMS5003;70244;48.792;9.172;2023-06-24T12:28:02;8;8;
60374;PMS5003;70244;48.792;9.172;2023-06-24T12:30:32;7;7;
60374;PMS5003;70244;48.792;9.172;2023-06-24T12:33:03;12;10;
60374;PMS5003;70244;48.792;9.172;2023-06-24T12:38:06;11;10;
60374;PMS5003;70244;48.792;9.172;2023-06-24T12:40:36;11;9;
60374;PMS5003;70244;48.792;9.172;2023-06-24T12:43:05;9;9;
60374;PMS5003;70244;48.792;9.172;2023-06-24T12:45:37;9;7;
60374;PMS5003;70244;48.792;9.172;2023-06-24T12:48:08;8;7;
60374;PMS5003;70244;48.792;9.172;2023-06-24T12:50:38;9;9;
60374;PMS5003;70244;48.792;9.172;2023-06-24T12:53:13;11;9;
60374;PMS5003;70244;48.792;9.172;2023-06-24T12:55:37;8;8;
60374;PMS5003;70244;48.792;9.172;2023-06-24T12:58:08;9;8;
60374;PMS5003;70244;48.792;9.172;2023-06-24T13:00:39;8;8;
60374;PMS5003;70244;48.792;9.172;2023-06-24T13:03:09;11;8;
60374;PMS5003;70244;48.792;9.172;2023-06-24T13:05:40;11;9;
60374;PMS5003;70244;48.792;9.172;2023-06-24T13:08:11;11;9;
60374;PMS5003;70244;48.792;9.172;2023-06-24T13:10:41;10;9;
60374;PMS5003;70244;48.792;9.172;2023-06-24T13:13:12;8;8;
60374;PMS5003;70244;48.792;9.172;2023-06-24T13:15:43;9;9;
60374;PMS5003;70244;48.792;9.172;2023-06-24T13:18:13;11;11;
60374;PMS5003;70244;48.792;9.172;2023-06-24T13:20:43;9;9;
60374;PMS5003;70244;48.792;9.172;2023-06-24T13:23:14;11;9;
60374;PMS5003;70244;48.792;9.172;2023-06-24T13:25:45;12;9;
60374;PMS5003;70244;48.792;9.172;2023-06-24T13:28:15;8;8;
60374;PMS5003;70244;48.792;9.172;2023-06-24T13:30:46;9;8;
60374;PMS5003;70244;48.792;9.172;2023-06-24T13:33:16;8;8;
60374;PMS5003;70244;48.792;9.172;2023-06-24T13:35:47;9;9;
60374;PMS5003;70244;48.792;9.172;2023-06-24T13:38:18;9;8;
60374;PMS5003;70244;48.792;9.172;2023-06-24T13:40:48;9;8;
60374;PMS5003;70244;48.792;9.172;2023-06-24T13:43:19;9;8;
60374;PMS5003;70244;48.792;9.172;2023-06-24T13:45:48;10;9;
60374;PMS5003;70244;48.792;9.172;2023-06-24T13:48:19;7;7;
60374;PMS5003;70244;48.792;9.172;2023-06-24T13:50:50;8;8;
60374;PMS5003;70244;48.792;9.172;2023-06-24T13:53:20;6;6;
60374;PMS5003;70244;48.792;9.172;2023-06-24T13:55:51;8;8;
60374;PMS5003;70244;48.792;9.172;2023-06-24T13:58:21;9;9;
60374;PMS5003;70244;48.792;9.172;2023-06-24T14:00:52;8;8;
60374;PMS5003;70244;48.792;9.172;2023-06-24T14:03:23;13;10;
60374;PMS5003;70244;48.792;9.172;2023-06-24T14:05:53;9;9;
60374;PMS5003;70244;48.792;9.172;2023-06-24T14:08:24;7;7;
60374;PMS5003;70244;48.792;9.172;2023-06-24T14:10:55;8;8;
60374;PMS5003;70244;48.792;9.172;2023-06-24T14:13:25;8;8;
60374;PMS5003;70244;48.792;9.172;2023-06-24T14:15:56;10;10;
60374;PMS5003;70244;48.792;9.172;2023-06-24T14:18:26;6;6;
60374;PMS5003;70244;48.792;9.172;2023-06-24T14:20:57;8;7;
60374;PMS5003;70244;48.792;9.172;2023-06-24T14:23:28;9;9;
60374;PMS5003;70244;48.792;9.172;2023-06-24T14:25:59;7;6;
60374;PMS5003;70244;48.792;9.172;2023-06-24T14:28:29;8;8;
60374;PMS5003;70244;48.792;9.172;2023-06-24T14:31:00;9;8;
60374;PMS5003;70244;48.792;9.172;2023-06-24T14:33:30;12;12;
60374;PMS5003;70244;48.792;9.172;2023-06-24T14:36:01;6;5;
60374;PMS5003;70244;48.792;9.172;2023-06-24T14:38:31;7;7;
60374;PMS5003;70244;48.792;9.172;2023-06-24T14:41:02;8;8;
60374;PMS5003;70244;48.792;9.172;2023-06-24T14:43:33;8;8;
60374;PMS5003;70244;48.792;9.172;2023-06-24T14:46:03;8;8;
60374;PMS5003;70244;48.792;9.172;2023-06-24T14:48:33;9;9;
60374;PMS5003;70244;48.792;9.172;2023-06-24T14:51:04;7;7;
60374;PMS5003;70244;48.792;9.172;2023-06-24T14:53:35;8;7;
60374;PMS5003;70244;48.792;9.172;2023-06-24T14:56:07;6;6;
60374;PMS5003;70244;48.792;9.172;2023-06-24T14:58:36;6;6;
60374;PMS5003;70244;48.792;9.172;2023-06-24T15:01:06;7;7;
60374;PMS5003;70244;48.792;9.172;2023-06-24T15:03:37;8;8;
60374;PMS5003;70244;48.792;9.172;2023-06-24T15:06:08;8;8;
60374;PMS5003;70244;48.792;9.172;2023-06-24T15:11:09;12;9;
60374;PMS5003;70244;48.792;9.172;2023-06-24T15:13:40;8;8;
60374;PMS5003;70244;48.792;9.172;2023-06-24T15:16:10;6;5;
60374;PMS5003;70244;48.792;9.172;2023-06-24T15:18:44;7;5;
60374;PMS5003;70244;48.792;9.172;2023-06-24T15:21:11;9;8;
60374;PMS5003;70244;48.792;9.172;2023-06-24T15:23:42;7;7;
60374;PMS5003;70244;48.792;9.172;2023-06-24T15:26:12;8;8;
60374;PMS5003;70244;48.792;9.172;2023-06-24T15:28:43;9;9;
60374;PMS5003;70244;48.792;9.172;2023-06-24T15:31:13;7;7;
60374;PMS5003;70244;48.792;9.172;2023-06-24T15:33:44;5;5;
60374;PMS5003;70244;48.792;9.172;2023-06-24T15:36:15;8;8;
60374;PMS5003;70244;48.792;9.172;2023-06-24T15:38:45;9;9;
60374;PMS5003;70244;48.792;9.172;2023-06-24T15:41:16;10;9;
60374;PMS5003;70244;48.792;9.172;2023-06-24T15:43:46;7;7;
60374;PMS5003;70244;48.792;9.172;2023-06-24T15:46:17;8;7;
60374;PMS5003;70244;48.792;9.172;2023-06-24T15:48:48;8;8;
60374;PMS5003;70244;48.792;9.172;2023-06-24T15:51:18;5;5;
60374;PMS5003;70244;48.792;9.172;2023-06-24T15:53:49;8;8;
60374;PMS5003;70244;48.792;9.172;2023-06-24T15:56:19;7;7;
60374;PMS5003;70244;48.792;9.172;2023-06-24T15:58:50;8;8;
60374;PMS5003;70244;48.792;9.172;2023-06-24T16:01:21;7;7;
60374;PMS5003;70244;48.792;9.172;2023-06-24T16:03:52;8;6;
60374;PMS5003;70244;48.792;9.172;2023-06-24T16:06:22;9;7;
60374;PMS5003;70244;48.792;9.172;2023-06-24T16:08:52;9;8;
60374;PMS5003;70244;48.792;9.172;2023-06-24T16:11:23;7;7;
60374;PMS5003;70244;48.792;9.172;2023-06-24T16:13:53;8;8;
60374;PMS5003;70244;48.792;9.172;2023-06-24T16:16:24;6;6;
60374;PMS5003;70244;48.792;9.172;2023-06-24T16:18:54;7;7;
60374;PMS5003;70244;48.792;9.172;2023-06-24T16:21:25;10;9;
60374;PMS5003;70244;48.792;9.172;2023-06-24T16:23:55;6;6;
60374;PMS5003;70244;48.792;9.172;2023-06-24T16:26:26;7;7;
60374;PMS5003;70244;48.792;9.172;2023-06-24T16:28:57;8;8;
60374;PMS5003;70244;48.792;9.172;2023-06-24T16:31:27;6;6;
60374;PMS5003;70244;48.792;9.172;2023-06-24T16:33:58;8;8;
60374;PMS5003;70244;48.792;9.172;2023-06-24T16:36:28;6;6;
60374;PMS5003;70244;48.792;9.172;2023-06-24T16:38:59;7;7;
60374;PMS5003;70244;48.792;9.172;2023-06-24T16:41:29;9;8;
60374;PMS5003;70244;48.792;9.172;2023-06-24T16:43:59;10;7;
60374;PMS5003;70244;48.792;9.172;2023-06-24T16:46:30;6;6;
60374;PMS5003;70244;48.792;9.172;2023-06-24T16:49:01;8;8;
60374;PMS5003;70244;48.792;9.172;2023-06-24T16:51:31;8;7;
60374;PMS5003;70244;48.792;9.172;2023-06-24T16:54:02;8;7;
60374;PMS5003;70244;48.792;9.172;2023-06-24T16:56:32;6;6;
60374;PMS5003;70244;48.792;9.172;2023-06-24T16:59:03;6;6;
60374;PMS5003;70244;48.792;9.172;2023-06-24T17:01:33;7;6;
60374;PMS5003;70244;48.792;9.172;2023-06-24T17:04:04;7;7;
60374;PMS5003;70244;48.792;9.172;2023-06-24T17:06:35;8;8;
60374;PMS5003;70244;48.792;9.172;2023-06-24T17:09:05;9;8;
60374;PMS5003;70244;48.792;9.172;2023-06-24T17:11:36;6;6;
60374;PMS5003;70244;48.792;9.172;2023-06-24T17:14:07;7;7;
60374;PMS5003;70244;48.792;9.172;2023-06-24T17:16:37;7;7;
60374;PMS5003;70244;48.792;9.172;2023-06-24T17:19:07;8;8;
60374;PMS5003;70244;48.792;9.172;2023-06-24T17:21:38;8;8;
60374;PMS5003;70244;48.792;9.172;2023-06-24T17:24:09;8;8;
60374;PMS5003;70244;48.792;9.172;2023-06-24T17:26:39;8;8;
60374;PMS5003;70244;48.792;9.172;2023-06-24T17:29:10;7;7;
60374;PMS5003;70244;48.792;9.172;2023-06-24T17:31:41;8;7;
60374;PMS5003;70244;48.792;9.172;2023-06-24T17:34:11;8;7;
60374;PMS5003;70244;48.792;9.172;2023-06-24T17:36:42;6;6;
60374;PMS5003;70244;48.792;9.172;2023-06-24T17:39:13;12;11;
60374;PMS5003;70244;48.792;9.172;2023-06-24T17:41:43;75;67;
60374;PMS5003;70244;48.792;9.172;2023-06-24T17:44:13;131;116;
60374;PMS5003;70244;48.792;9.172;2023-06-24T17:46:44;132;119;
60374;PMS5003;70244;48.792;9.172;2023-06-24T17:49:14;196;186;
60374;PMS5003;70244;48.792;9.172;2023-06-24T17:51:44;176;162;
60374;PMS5003;70244;48.792;9.172;2023-06-24T17:54:15;180;165;
60374;PMS5003;70244;48.792;9.172;2023-06-24T17:56:45;194;174;
60374;PMS5003;70244;48.792;9.172;2023-06-24T17:59:16;185;170;
60374;PMS5003;70244;48.792;9.172;2023-06-24T18:01:46;215;195;
60374;PMS5003;70244;48.792;9.172;2023-06-24T18:04:17;235;215;
60374;PMS5003;70244;48.792;9.172;2023-06-24T18:06:47;221;199;
60374;PMS5003;70244;48.792;9.172;2023-06-24T18:09:18;198;183;
60374;PMS5003;70244;48.792;9.172;2023-06-24T18:11:48;194;175;
60374;PMS5003;70244;48.792;9.172;2023-06-24T18:14:19;184;174;
60374;PMS5003;70244;48.792;9.172;2023-06-24T18:16:50;180;165;
60374;PMS5003;70244;48.792;9.172;2023-06-24T18:19:20;187;172;
60374;PMS5003;70244;48.792;9.172;2023-06-24T18:21:50;169;154;
60374;PMS5003;70244;48.792;9.172;2023-06-24T18:24:20;153;147;
60374;PMS5003;70244;48.792;9.172;2023-06-24T18:26:50;128;120;
60374;PMS5003;70244;48.792;9.172;2023-06-24T18:29:21;104;98;
60374;PMS5003;70244;48.792;9.172;2023-06-24T18:31:51;91;87;
60374;PMS5003;70244;48.792;9.172;2023-06-24T18:34:22;82;78;
60374;PMS5003;70244;48.792;9.172;2023-06-24T18:36:52;58;57;
60374;PMS5003;70244;48.792;9.172;2023-06-24T18:39:23;69;59;
60374;PMS5003;70244;48.792;9.172;2023-06-24T18:41:53;57;48;
60374;PMS5003;70244;48.792;9.172;2023-06-24T18:44:24;42;39;
60374;PMS5003;70244;48.792;9.172;2023-06-24T18:46:54;40;36;
60374;PMS5003;70244;48.792;9.172;2023-06-24T18:49:25;45;42;
60374;PMS5003;70244;48.792;9.172;2023-06-24T18:51:55;43;39;
60374;PMS5003;70244;48.792;9.172;2023-06-24T18:54:26;36;35;
60374;PMS5003;70244;48.792;9.172;2023-06-24T18:56:56;30;29;
60374;PMS5003;70244;48.792;9.172;2023-06-24T18:59:27;29;27;
60374;PMS5003;70244;48.792;9.172;2023-06-24T19:01:57;20;19;
60374;PMS5003;70244;48.792;9.172;2023-06-24T19:04:28;25;21;
60374;PMS5003;70244;48.792;9.172;2023-06-24T19:06:58;24;22;
60374;PMS5003;70244;48.792;9.172;2023-06-24T19:09:28;20;19;
60374;PMS5003;70244;48.792;9.172;2023-06-24T19:11:59;23;23;
60374;PMS5003;70244;48.792;9.172;2023-06-24T19:14:29;24;22;
60374;PMS5003;70244;48.792;9.172;2023-06-24T19:16:59;18;16;
60374;PMS5003;70244;48.792;9.172;2023-06-24T19:19:30;20;17;
60374;PMS5003;70244;48.792;9.172;2023-06-24T19:22:01;15;15;
60374;PMS5003;70244;48.792;9.172;2023-06-24T19:24:31;15;15;
60374;PMS5003;70244;48.792;9.172;2023-06-24T19:27:02;15;13;
60374;PMS5003;70244;48.792;9.172;2023-06-24T19:29:32;13;13;
60374;PMS5003;70244;48.792;9.172;2023-06-24T19:32:03;15;15;
60374;PMS5003;70244;48.792;9.172;2023-06-24T19:34:33;12;12;
60374;PMS5003;70244;48.792;9.172;2023-06-24T19:37:04;18;15;
60374;PMS5003;70244;48.792;9.172;2023-06-24T19:39:34;15;15;
60374;PMS5003;70244;48.792;9.172;2023-06-24T19:42:05;11;11;
60374;PMS5003;70244;48.792;9.172;2023-06-24T19:44:35;11;11;
60374;PMS5003;70244;48.792;9.172;2023-06-24T19:47:06;13;11;
60374;PMS5003;70244;48.792;9.172;2023-06-24T19:49:38;9;9;
60374;PMS5003;70244;48.792;9.172;2023-06-24T19:52:07;12;12;
60374;PMS5003;70244;48.792;9.172;2023-06-24T19:54:37;11;11;
60374;PMS5003;70244;48.792;9.172;2023-06-24T19:57:08;12;11;
60374;PMS5003;70244;48.792;9.172;2023-06-24T19:59:38;8;8;
60374;PMS5003;70244;48.792;9.172;2023-06-24T20:02:09;11;9;
60374;PMS5003;70244;48.792;9.172;2023-06-24T20:04:39;10;9;
60374;PMS5003;70244;48.792;9.172;2023-06-24T20:07:10;8;8;
60374;PMS5003;70244;48.792;9.172;2023-06-24T20:09:40;13;9;
60374;PMS5003;70244;48.792;9.172;2023-06-24T20:12:11;11;9;
60374;PMS5003;70244;48.792;9.172;2023-06-24T20:14:42;13;13;
60374;PMS5003;70244;48.792;9.172;2023-06-24T20:17:12;9;9;
60374;PMS5003;70244;48.792;9.172;2023-06-24T20:19:43;11;11;
60374;PMS5003;70244;48.792;9.172;2023-06-24T20:22:14;10;10;
60374;PMS5003;70244;48.792;9.172;2023-06-24T20:24:44;10;10;
60374;PMS5003;70244;48.792;9.172;2023-06-24T20:27:14;12;11;
60374;PMS5003;70244;48.792;9.172;2023-06-24T20:29:45;11;10;
60374;PMS5003;70244;48.792;9.172;2023-06-24T20:32:15;8;8;
60374;PMS5003;70244;48.792;9.172;2023-06-24T20:34:46;10;10;
60374;PMS5003;70244;48.792;9.172;2023-06-24T20:37:17;12;10;
60374;PMS5003;70244;48.792;9.172;2023-06-24T20:39:47;12;12;
60374;PMS5003;70244;48.792;9.172;2023-06-24T20:42:18;9;9;
60374;PMS5003;70244;48.792;9.172;2023-06-24T20:44:48;11;11;
60374;PMS5003;70244;48.792;9.172;2023-06-24T20:47:19;11;11;
60374;PMS5003;70244;48.792;9.172;2023-06-24T20:49:49;12;11;
60374;PMS5003;70244;48.792;9.172;2023-06-24T20:52:20;11;10;
60374;PMS5003;70244;48.792;9.172;2023-06-24T20:54:51;9;9;
60374;PMS5003;70244;48.792;9.172;2023-06-24T20:57:21;11;11;
60374;PMS5003;70244;48.792;9.172;2023-06-24T20:59:52;13;12;
60374;PMS5003;70244;48.792;9.172;2023-06-24T21:02:22;13;12;
60374;PMS5003;70244;48.792;9.172;2023-06-24T21:04:53;12;12;
60374;PMS5003;70244;48.792;9.172;2023-06-24T21:07:24;9;7;
60374;PMS5003;70244;48.792;9.172;2023-06-24T21:09:54;9;9;
60374;PMS5003;70244;48.792;9.172;2023-06-24T21:12:25;9;9;
60374;PMS5003;70244;48.792;9.172;2023-06-24T21:14:56;9;9;
60374;PMS5003;70244;48.792;9.172;2023-06-24T21:17:26;11;10;
60374;PMS5003;70244;48.792;9.172;2023-06-24T21:19:57;11;10;
60374;PMS5003;70244;48.792;9.172;2023-06-24T21:22:27;11;11;
60374;PMS5003;70244;48.792;9.172;2023-06-24T21:24:58;11;10;
60374;PMS5003;70244;48.792;9.172;2023-06-24T21:27:28;8;8;
60374;PMS5003;70244;48.792;9.172;2023-06-24T21:29:59;11;9;
60374;PMS5003;70244;48.792;9.172;2023-06-24T21:32:29;7;7;
60374;PMS5003;70244;48.792;9.172;2023-06-24T21:34:59;13;13;
60374;PMS5003;70244;48.792;9.172;2023-06-24T21:37:30;10;9;
60374;PMS5003;70244;48.792;9.172;2023-06-24T21:40:00;11;10;
60374;PMS5003;70244;48.792;9.172;2023-06-24T21:42:31;11;11;
60374;PMS5003;70244;48.792;9.172;2023-06-24T21:45:02;7;7;
60374;PMS5003;70244;48.792;9.172;2023-06-24T21:47:32;10;10;
60374;PMS5003;70244;48.792;9.172;2023-06-24T21:50:03;8;8;
60374;PMS5003;70244;48.792;9.172;2023-06-24T21:52:33;10;9;
60374;PMS5003;70244;48.792;9.172;2023-06-24T21:55:04;6;6;
60374;PMS5003;70244;48.792;9.172;2023-06-24T21:57:34;9;9;
60374;PMS5003;70244;48.792;9.172;2023-06-24T22:00:05;9;9;
60374;PMS5003;70244;48.792;9.172;2023-06-24T22:02:36;9;8;
60374;PMS5003;70244;48.792;9.172;2023-06-24T22:05:06;12;11;
60374;PMS5003;70244;48.792;9.172;2023-06-24T22:07:37;9;8;
60374;PMS5003;70244;48.792;9.172;2023-06-24T22:10:07;11;11;
60374;PMS5003;70244;48.792;9.172;2023-06-24T22:12:38;12;10;
60374;PMS5003;70244;48.792;9.172;2023-06-24T22:15:09;10;9;
60374;PMS5003;70244;48.792;9.172;2023-06-24T22:17:39;12;9;
60374;PMS5003;70244;48.792;9.172;2023-06-24T22:20:10;10;10;
60374;PMS5003;70244;48.792;9.172;2023-06-24T22:22:41;10;10;
60374;PMS5003;70244;48.792;9.172;2023-06-24T22:25:11;10;10;
60374;PMS5003;70244;48.792;9.172;2023-06-24T22:27:42;10;9;
60374;PMS5003;70244;48.792;9.172;2023-06-24T22:30:12;12;10;
60374;PMS5003;70244;48.792;9.172;2023-06-24T22:32:42;11;11;
60374;PMS5003;70244;48.792;9.172;2023-06-24T22:35:13;15;11;
60374;PMS5003;70244;48.792;9.172;2023-06-24T22:37:43;10;10;